sensor_id;sensor_type;location;lat;lon;timestamp;P1;durP1;ratioP1;P2;durP2;ratioP2
46391;SDS011;32098;49.448;7.904;2022-09-01T00:01:40;7.45;;;6.45;;
46391;SDS011;32098;49.448;7.904;2022-09-01T00:04:09;8.00;;;7.20;;
46391;SDS011;32098;49.448;7.904;2022-09-01T00:06:38;7.93;;;7.13;;
46391;SDS011;32098;49.448;7.904;2022-09-01T00:09:07;8.00;;;7.20;;
46391;SDS011;32098;49.448;7.904;2022-09-01T00:11:37;7.53;;;6.80;;
46391;SDS011;32098;49.448;7.904;2022-09-01T00:14:06;9.63;;;6.97;;
46391;SDS011;32098;49.448;7.904;2022-09-01T00:16:54;7.82;;;7.10;;
46391;SDS011;32098;49.448;7.904;2022-09-01T00:19:22;9.30;;;7.20;;
46391;SDS011;32098;49.448;7.904;2022-09-01T00:21:49;7.13;;;6.43;;
46391;SDS011;32098;49.448;7.904;2022-09-01T00:24:17;8.03;;;7.07;;
46391;SDS011;32098;49.448;7.904;2022-09-01T00:26:44;8.70;;;7.67;;
46391;SDS011;32098;49.448;7.904;2022-09-01T00:29:11;9.70;;;7.67;;
46391;SDS011;32098;49.448;7.904;2022-09-01T00:31:38;8.87;;;7.97;;
46391;SDS011;32098;49.448;7.904;2022-09-01T00:34:05;8.13;;;7.17;;
46391;SDS011;32098;49.448;7.904;2022-09-01T00:36:32;9.17;;;7.53;;
46391;SDS011;32098;49.448;7.904;2022-09-01T00:39:00;9.10;;;7.30;;
46391;SDS011;32098;49.448;7.904;2022-09-01T00:41:28;9.27;;;7.33;;
46391;SDS011;32098;49.448;7.904;2022-09-01T00:43:57;7.97;;;7.17;;
46391;SDS011;32098;49.448;7.904;2022-09-01T00:46:32;8.45;;;7.53;;
46391;SDS011;32098;49.448;7.904;2022-09-01T00:51:43;9.37;;;8.37;;
46391;SDS011;32098;49.448;7.904;2022-09-01T00:54:15;8.90;;;7.60;;
46391;SDS011;32098;49.448;7.904;2022-09-01T00:56:47;8.97;;;7.40;;
46391;SDS011;32098;49.448;7.904;2022-09-01T00:59:24;8.43;;;7.63;;
46391;SDS011;32098;49.448;7.904;2022-09-01T01:01:52;8.70;;;7.77;;
46391;SDS011;32098;49.448;7.904;2022-09-01T01:04:20;8.40;;;7.50;;
46391;SDS011;32098;49.448;7.904;2022-09-01T01:06:52;8.17;;;7.37;;
46391;SDS011;32098;49.448;7.904;2022-09-01T01:09:28;7.87;;;7.07;;
46391;SDS011;32098;49.448;7.904;2022-09-01T01:11:59;11.63;;;7.80;;
46391;SDS011;32098;49.448;7.904;2022-09-01T01:14:28;8.43;;;7.57;;
46391;SDS011;32098;49.448;7.904;2022-09-01T01:16:57;9.83;;;7.50;;
46391;SDS011;32098;49.448;7.904;2022-09-01T01:19:30;8.40;;;7.50;;
46391;SDS011;32098;49.448;7.904;2022-09-01T01:25:47;10.10;;;7.20;;
46391;SDS011;32098;49.448;7.904;2022-09-01T01:30:51;8.50;;;7.37;;
46391;SDS011;32098;49.448;7.904;2022-09-01T01:33:21;8.30;;;7.50;;
46391;SDS011;32098;49.448;7.904;2022-09-01T01:40:12;8.83;;;7.60;;
46391;SDS011;32098;49.448;7.904;2022-09-01T01:42:45;8.87;;;7.77;;
46391;SDS011;32098;49.448;7.904;2022-09-01T01:45:14;10.10;;;7.55;;
46391;SDS011;32098;49.448;7.904;2022-09-01T01:47:43;8.97;;;7.03;;
46391;SDS011;32098;49.448;7.904;2022-09-01T01:50:23;9.50;;;7.57;;
46391;SDS011;32098;49.448;7.904;2022-09-01T01:52:53;8.30;;;7.37;;
46391;SDS011;32098;49.448;7.904;2022-09-01T01:55:24;8.47;;;7.53;;
46391;SDS011;32098;49.448;7.904;2022-09-01T01:57:56;9.77;;;7.40;;
46391;SDS011;32098;49.448;7.904;2022-09-01T02:00:26;8.77;;;7.00;;
46391;SDS011;32098;49.448;7.904;2022-09-01T02:02:56;7.73;;;6.93;;
46391;SDS011;32098;49.448;7.904;2022-09-01T02:05:25;7.93;;;7.17;;
46391;SDS011;32098;49.448;7.904;2022-09-01T02:07:55;8.90;;;8.00;;
46391;SDS011;32098;49.448;7.904;2022-09-01T02:10:27;8.63;;;6.73;;
46391;SDS011;32098;49.448;7.904;2022-09-01T02:12:59;8.23;;;7.23;;
46391;SDS011;32098;49.448;7.904;2022-09-01T02:15:34;8.27;;;6.83;;
46391;SDS011;32098;49.448;7.904;2022-09-01T02:18:20;7.83;;;7.00;;
46391;SDS011;32098;49.448;7.904;2022-09-01T02:20:50;8.13;;;7.00;;
46391;SDS011;32098;49.448;7.904;2022-09-01T02:23:19;8.50;;;7.60;;
46391;SDS011;32098;49.448;7.904;2022-09-01T02:25:54;8.83;;;7.63;;
46391;SDS011;32098;49.448;7.904;2022-09-01T02:28:46;8.33;;;7.23;;
46391;SDS011;32098;49.448;7.904;2022-09-01T02:31:24;8.13;;;7.30;;
46391;SDS011;32098;49.448;7.904;2022-09-01T02:33:53;9.03;;;7.13;;
46391;SDS011;32098;49.448;7.904;2022-09-01T02:36:20;9.53;;;7.33;;
46391;SDS011;32098;49.448;7.904;2022-09-01T02:38:48;7.93;;;7.13;;
46391;SDS011;32098;49.448;7.904;2022-09-01T02:41:21;8.13;;;7.30;;
46391;SDS011;32098;49.448;7.904;2022-09-01T02:43:50;7.77;;;6.93;;
46391;SDS011;32098;49.448;7.904;2022-09-01T02:46:17;8.23;;;6.93;;
46391;SDS011;32098;49.448;7.904;2022-09-01T02:48:45;8.27;;;6.73;;
46391;SDS011;32098;49.448;7.904;2022-09-01T02:51:18;6.97;;;6.37;;
46391;SDS011;32098;49.448;7.904;2022-09-01T02:53:47;9.70;;;7.50;;
46391;SDS011;32098;49.448;7.904;2022-09-01T02:56:19;8.13;;;7.33;;
46391;SDS011;32098;49.448;7.904;2022-09-01T02:58:51;9.07;;;7.53;;
46391;SDS011;32098;49.448;7.904;2022-09-01T03:01:21;8.33;;;6.77;;
46391;SDS011;32098;49.448;7.904;2022-09-01T03:03:58;8.97;;;7.07;;
46391;SDS011;32098;49.448;7.904;2022-09-01T03:06:26;9.27;;;8.33;;
46391;SDS011;32098;49.448;7.904;2022-09-01T03:08:54;7.90;;;7.10;;
46391;SDS011;32098;49.448;7.904;2022-09-01T03:11:25;8.07;;;6.77;;
46391;SDS011;32098;49.448;7.904;2022-09-01T03:13:54;10.27;;;7.80;;
46391;SDS011;32098;49.448;7.904;2022-09-01T03:16:21;10.57;;;7.40;;
46391;SDS011;32098;49.448;7.904;2022-09-01T03:18:48;9.07;;;7.63;;
46391;SDS011;32098;49.448;7.904;2022-09-01T03:21:17;8.07;;;7.00;;
46391;SDS011;32098;49.448;7.904;2022-09-01T03:23:44;8.50;;;7.20;;
46391;SDS011;32098;49.448;7.904;2022-09-01T03:26:12;8.30;;;7.00;;
46391;SDS011;32098;49.448;7.904;2022-09-01T03:28:40;7.73;;;6.93;;
46391;SDS011;32098;49.448;7.904;2022-09-01T03:31:07;8.30;;;7.40;;
46391;SDS011;32098;49.448;7.904;2022-09-01T03:33:34;7.93;;;6.97;;
46391;SDS011;32098;49.448;7.904;2022-09-01T03:36:04;7.53;;;6.80;;
46391;SDS011;32098;49.448;7.904;2022-09-01T03:38:41;7.83;;;7.03;;
46391;SDS011;32098;49.448;7.904;2022-09-01T03:41:10;7.37;;;6.67;;
46391;SDS011;32098;49.448;7.904;2022-09-01T03:43:39;8.40;;;7.07;;
46391;SDS011;32098;49.448;7.904;2022-09-01T03:46:12;9.30;;;6.80;;
46391;SDS011;32098;49.448;7.904;2022-09-01T03:48:52;7.90;;;6.70;;
46391;SDS011;32098;49.448;7.904;2022-09-01T03:51:21;8.40;;;6.93;;
46391;SDS011;32098;49.448;7.904;2022-09-01T03:53:49;8.60;;;7.47;;
46391;SDS011;32098;49.448;7.904;2022-09-01T03:56:21;8.07;;;6.80;;
46391;SDS011;32098;49.448;7.904;2022-09-01T03:58:52;8.63;;;7.57;;
46391;SDS011;32098;49.448;7.904;2022-09-01T04:01:22;10.10;;;7.50;;
46391;SDS011;32098;49.448;7.904;2022-09-01T04:03:49;7.83;;;7.03;;
46391;SDS011;32098;49.448;7.904;2022-09-01T04:06:21;8.43;;;7.50;;
46391;SDS011;32098;49.448;7.904;2022-09-01T04:08:49;7.83;;;7.10;;
46391;SDS011;32098;49.448;7.904;2022-09-01T04:11:21;7.80;;;7.00;;
46391;SDS011;32098;49.448;7.904;2022-09-01T04:13:51;7.77;;;6.97;;
46391;SDS011;32098;49.448;7.904;2022-09-01T04:16:25;7.80;;;6.97;;
46391;SDS011;32098;49.448;7.904;2022-09-01T04:19:12;8.00;;;7.20;;
46391;SDS011;32098;49.448;7.904;2022-09-01T04:21:46;10.03;;;7.80;;
46391;SDS011;32098;49.448;7.904;2022-09-01T04:24:16;8.10;;;7.13;;
46391;SDS011;32098;49.448;7.904;2022-09-01T04:26:45;9.43;;;7.57;;
46391;SDS011;32098;49.448;7.904;2022-09-01T04:29:15;9.83;;;7.37;;
46391;SDS011;32098;49.448;7.904;2022-09-01T04:31:44;9.80;;;7.43;;
46391;SDS011;32098;49.448;7.904;2022-09-01T04:34:14;7.70;;;6.77;;
46391;SDS011;32098;49.448;7.904;2022-09-01T04:36:42;7.80;;;7.07;;
46391;SDS011;32098;49.448;7.904;2022-09-01T04:39:10;9.03;;;7.90;;
46391;SDS011;32098;49.448;7.904;2022-09-01T04:41:40;9.37;;;7.73;;
46391;SDS011;32098;49.448;7.904;2022-09-01T04:44:11;7.77;;;6.70;;
46391;SDS011;32098;49.448;7.904;2022-09-01T04:46:42;9.47;;;7.30;;
46391;SDS011;32098;49.448;7.904;2022-09-01T04:49:13;8.57;;;7.30;;
46391;SDS011;32098;49.448;7.904;2022-09-01T04:51:47;8.33;;;6.60;;
46391;SDS011;32098;49.448;7.904;2022-09-01T04:54:21;8.83;;;7.13;;
46391;SDS011;32098;49.448;7.904;2022-09-01T04:56:48;7.47;;;6.77;;
46391;SDS011;32098;49.448;7.904;2022-09-01T04:59:19;8.83;;;7.60;;
46391;SDS011;32098;49.448;7.904;2022-09-01T05:01:54;7.10;;;6.40;;
46391;SDS011;32098;49.448;7.904;2022-09-01T05:04:24;7.57;;;6.77;;
46391;SDS011;32098;49.448;7.904;2022-09-01T05:06:54;9.60;;;7.37;;
46391;SDS011;32098;49.448;7.904;2022-09-01T05:09:31;8.33;;;7.30;;
46391;SDS011;32098;49.448;7.904;2022-09-01T05:12:08;7.87;;;7.07;;
46391;SDS011;32098;49.448;7.904;2022-09-01T05:14:44;7.57;;;6.73;;
46391;SDS011;32098;49.448;7.904;2022-09-01T05:17:16;7.00;;;6.33;;
46391;SDS011;32098;49.448;7.904;2022-09-01T05:19:45;9.17;;;6.83;;
46391;SDS011;32098;49.448;7.904;2022-09-01T05:22:14;6.77;;;6.13;;
46391;SDS011;32098;49.448;7.904;2022-09-01T05:24:51;7.03;;;6.27;;
46391;SDS011;32098;49.448;7.904;2022-09-01T05:27:21;7.07;;;6.37;;
46391;SDS011;32098;49.448;7.904;2022-09-01T05:29:48;7.10;;;6.40;;
46391;SDS011;32098;49.448;7.904;2022-09-01T05:32:15;9.53;;;6.47;;
46391;SDS011;32098;49.448;7.904;2022-09-01T05:34:41;6.93;;;5.90;;
46391;SDS011;32098;49.448;7.904;2022-09-01T05:37:10;7.93;;;6.47;;
46391;SDS011;32098;49.448;7.904;2022-09-01T05:39:39;6.57;;;5.87;;
46391;SDS011;32098;49.448;7.904;2022-09-01T05:42:06;6.20;;;5.60;;
46391;SDS011;32098;49.448;7.904;2022-09-01T05:44:35;8.07;;;6.40;;
46391;SDS011;32098;49.448;7.904;2022-09-01T05:47:10;6.53;;;5.93;;
46391;SDS011;32098;49.448;7.904;2022-09-01T05:49:48;6.57;;;5.80;;
46391;SDS011;32098;49.448;7.904;2022-09-01T05:52:15;8.77;;;6.43;;
46391;SDS011;32098;49.448;7.904;2022-09-01T05:54:43;7.43;;;6.13;;
46391;SDS011;32098;49.448;7.904;2022-09-01T05:57:15;7.10;;;6.13;;
46391;SDS011;32098;49.448;7.904;2022-09-01T06:00:00;7.67;;;5.77;;
46391;SDS011;32098;49.448;7.904;2022-09-01T06:02:38;6.50;;;5.90;;
46391;SDS011;32098;49.448;7.904;2022-09-01T06:05:14;6.50;;;5.57;;
46391;SDS011;32098;49.448;7.904;2022-09-01T06:07:41;6.38;;;5.70;;
46391;SDS011;32098;49.448;7.904;2022-09-01T06:10:09;5.65;;;5.25;;
46391;SDS011;32098;49.448;7.904;2022-09-01T06:12:36;6.68;;;6.00;;
46391;SDS011;32098;49.448;7.904;2022-09-01T06:15:03;6.90;;;5.40;;
46391;SDS011;32098;49.448;7.904;2022-09-01T06:17:42;6.35;;;5.75;;
46391;SDS011;32098;49.448;7.904;2022-09-01T06:20:09;6.30;;;5.50;;
46391;SDS011;32098;49.448;7.904;2022-09-01T06:22:39;7.90;;;5.80;;
46391;SDS011;32098;49.448;7.904;2022-09-01T06:25:07;6.22;;;5.63;;
46391;SDS011;32098;49.448;7.904;2022-09-01T06:27:36;6.32;;;5.38;;
46391;SDS011;32098;49.448;7.904;2022-09-01T06:30:11;7.53;;;5.70;;
46391;SDS011;32098;49.448;7.904;2022-09-01T06:33:02;5.72;;;5.20;;
46391;SDS011;32098;49.448;7.904;2022-09-01T06:35:32;6.22;;;5.50;;
46391;SDS011;32098;49.448;7.904;2022-09-01T06:37:59;5.45;;;4.95;;
46391;SDS011;32098;49.448;7.904;2022-09-01T06:40:36;4.78;;;4.38;;
46391;SDS011;32098;49.448;7.904;2022-09-01T06:43:05;3.97;;;3.58;;
46391;SDS011;32098;49.448;7.904;2022-09-01T06:45:43;4.10;;;3.42;;
46391;SDS011;32098;49.448;7.904;2022-09-01T06:48:15;4.15;;;3.70;;
46391;SDS011;32098;49.448;7.904;2022-09-01T06:50:43;4.32;;;3.72;;
46391;SDS011;32098;49.448;7.904;2022-09-01T06:53:31;5.32;;;3.70;;
46391;SDS011;32098;49.448;7.904;2022-09-01T06:56:03;4.75;;;3.35;;
46391;SDS011;32098;49.448;7.904;2022-09-01T06:58:30;4.13;;;3.40;;
46391;SDS011;32098;49.448;7.904;2022-09-01T07:00:58;5.30;;;3.88;;
46391;SDS011;32098;49.448;7.904;2022-09-01T07:03:25;4.43;;;4.03;;
46391;SDS011;32098;49.448;7.904;2022-09-01T07:06:13;4.93;;;4.30;;
46391;SDS011;32098;49.448;7.904;2022-09-01T07:09:20;6.00;;;4.20;;
46391;SDS011;32098;49.448;7.904;2022-09-01T07:12:20;5.03;;;4.28;;
46391;SDS011;32098;49.448;7.904;2022-09-01T07:14:51;5.72;;;4.35;;
46391;SDS011;32098;49.448;7.904;2022-09-01T07:17:40;4.60;;;4.20;;
46391;SDS011;32098;49.448;7.904;2022-09-01T07:20:08;4.22;;;3.83;;
46391;SDS011;32098;49.448;7.904;2022-09-01T07:22:54;4.35;;;3.95;;
46391;SDS011;32098;49.448;7.904;2022-09-01T07:25:43;4.85;;;4.00;;
46391;SDS011;32098;49.448;7.904;2022-09-01T07:28:40;5.30;;;4.50;;
46391;SDS011;32098;49.448;7.904;2022-09-01T07:31:15;5.43;;;3.85;;
46391;SDS011;32098;49.448;7.904;2022-09-01T07:34:09;6.43;;;4.15;;
46391;SDS011;32098;49.448;7.904;2022-09-01T07:37:00;4.50;;;4.10;;
46391;SDS011;32098;49.448;7.904;2022-09-01T07:39:47;5.25;;;4.18;;
46391;SDS011;32098;49.448;7.904;2022-09-01T07:42:37;5.13;;;3.85;;
46391;SDS011;32098;49.448;7.904;2022-09-01T07:45:54;9.88;;;5.45;;
46391;SDS011;32098;49.448;7.904;2022-09-01T07:48:25;7.78;;;4.80;;
46391;SDS011;32098;49.448;7.904;2022-09-01T07:51:14;5.35;;;4.40;;
46391;SDS011;32098;49.448;7.904;2022-09-01T07:54:02;6.15;;;4.93;;
46391;SDS011;32098;49.448;7.904;2022-09-01T07:56:29;5.95;;;5.05;;
46391;SDS011;32098;49.448;7.904;2022-09-01T07:58:56;5.95;;;4.68;;
46391;SDS011;32098;49.448;7.904;2022-09-01T08:01:24;5.47;;;4.20;;
46391;SDS011;32098;49.448;7.904;2022-09-01T08:03:54;5.40;;;4.90;;
46391;SDS011;32098;49.448;7.904;2022-09-01T08:06:24;5.95;;;4.85;;
46391;SDS011;32098;49.448;7.904;2022-09-01T08:08:55;4.63;;;4.22;;
46391;SDS011;32098;49.448;7.904;2022-09-01T08:11:26;6.72;;;5.25;;
46391;SDS011;32098;49.448;7.904;2022-09-01T08:14:14;6.40;;;5.05;;
46391;SDS011;32098;49.448;7.904;2022-09-01T08:16:44;5.35;;;4.85;;
46391;SDS011;32098;49.448;7.904;2022-09-01T08:19:18;5.18;;;4.68;;
46391;SDS011;32098;49.448;7.904;2022-09-01T08:22:02;5.60;;;4.78;;
46391;SDS011;32098;49.448;7.904;2022-09-01T08:24:47;5.43;;;4.93;;
46391;SDS011;32098;49.448;7.904;2022-09-01T08:27:14;5.53;;;5.03;;
46391;SDS011;32098;49.448;7.904;2022-09-01T08:29:41;5.35;;;4.85;;
46391;SDS011;32098;49.448;7.904;2022-09-01T08:32:08;5.90;;;5.05;;
46391;SDS011;32098;49.448;7.904;2022-09-01T08:34:37;5.65;;;5.13;;
46391;SDS011;32098;49.448;7.904;2022-09-01T08:37:04;5.97;;;4.70;;
46391;SDS011;32098;49.448;7.904;2022-09-01T08:39:32;6.03;;;4.90;;
46391;SDS011;32098;49.448;7.904;2022-09-01T08:42:18;7.88;;;6.15;;
46391;SDS011;32098;49.448;7.904;2022-09-01T08:47:29;5.70;;;4.47;;
46391;SDS011;32098;49.448;7.904;2022-09-01T08:50:16;6.47;;;5.40;;
46391;SDS011;32098;49.448;7.904;2022-09-01T08:52:59;5.93;;;5.05;;
46391;SDS011;32098;49.448;7.904;2022-09-01T08:55:38;7.53;;;5.75;;
46391;SDS011;32098;49.448;7.904;2022-09-01T08:58:12;6.57;;;5.22;;
46391;SDS011;32098;49.448;7.904;2022-09-01T09:01:16;5.95;;;5.18;;
46391;SDS011;32098;49.448;7.904;2022-09-01T09:04:01;6.10;;;5.47;;
46391;SDS011;32098;49.448;7.904;2022-09-01T09:09:18;5.78;;;4.90;;
46391;SDS011;32098;49.448;7.904;2022-09-01T09:12:12;5.00;;;4.50;;
46391;SDS011;32098;49.448;7.904;2022-09-01T09:15:21;5.93;;;4.60;;
46391;SDS011;32098;49.448;7.904;2022-09-01T09:18:09;6.45;;;5.63;;
46391;SDS011;32098;49.448;7.904;2022-09-01T09:21:13;5.60;;;5.10;;
46391;SDS011;32098;49.448;7.904;2022-09-01T09:23:46;5.35;;;4.85;;
46391;SDS011;32098;49.448;7.904;2022-09-01T09:26:16;8.50;;;5.35;;
46391;SDS011;32098;49.448;7.904;2022-09-01T09:28:47;5.93;;;4.97;;
46391;SDS011;32098;49.448;7.904;2022-09-01T09:33:54;5.88;;;5.28;;
46391;SDS011;32098;49.448;7.904;2022-09-01T09:36:23;5.35;;;4.78;;
46391;SDS011;32098;49.448;7.904;2022-09-01T09:39:03;6.03;;;5.43;;
46391;SDS011;32098;49.448;7.904;2022-09-01T09:41:42;5.20;;;4.70;;
46391;SDS011;32098;49.448;7.904;2022-09-01T09:44:27;6.80;;;5.10;;
46391;SDS011;32098;49.448;7.904;2022-09-01T09:46:57;6.13;;;5.13;;
46391;SDS011;32098;49.448;7.904;2022-09-01T09:49:28;5.68;;;4.82;;
46391;SDS011;32098;49.448;7.904;2022-09-01T09:54:34;5.20;;;4.70;;
46391;SDS011;32098;49.448;7.904;2022-09-01T09:57:08;5.40;;;4.60;;
46391;SDS011;32098;49.448;7.904;2022-09-01T09:59:42;5.68;;;4.70;;
46391;SDS011;32098;49.448;7.904;2022-09-01T10:02:32;5.00;;;4.43;;
46391;SDS011;32098;49.448;7.904;2022-09-01T10:05:25;5.55;;;4.38;;
46391;SDS011;32098;49.448;7.904;2022-09-01T10:07:58;5.28;;;4.78;;
46391;SDS011;32098;49.448;7.904;2022-09-01T10:10:41;5.45;;;4.63;;
46391;SDS011;32098;49.448;7.904;2022-09-01T10:13:24;5.68;;;5.15;;
46391;SDS011;32098;49.448;7.904;2022-09-01T10:16:01;5.35;;;4.85;;
46391;SDS011;32098;49.448;7.904;2022-09-01T10:18:47;5.95;;;4.80;;
46391;SDS011;32098;49.448;7.904;2022-09-01T10:21:20;6.45;;;4.88;;
46391;SDS011;32098;49.448;7.904;2022-09-01T10:23:53;5.53;;;5.03;;
46391;SDS011;32098;49.448;7.904;2022-09-01T10:26:25;5.45;;;4.80;;
46391;SDS011;32098;49.448;7.904;2022-09-01T10:28:57;6.38;;;5.07;;
46391;SDS011;32098;49.448;7.904;2022-09-01T10:31:31;5.18;;;4.72;;
46391;SDS011;32098;49.448;7.904;2022-09-01T10:34:01;8.52;;;5.20;;
46391;SDS011;32098;49.448;7.904;2022-09-01T10:36:31;6.47;;;5.00;;
46391;SDS011;32098;49.448;7.904;2022-09-01T10:39:03;5.55;;;5.05;;
46391;SDS011;32098;49.448;7.904;2022-09-01T10:41:53;4.93;;;4.50;;
46391;SDS011;32098;49.448;7.904;2022-09-01T10:44:32;5.20;;;4.80;;
46391;SDS011;32098;49.448;7.904;2022-09-01T10:47:08;4.97;;;4.47;;
46391;SDS011;32098;49.448;7.904;2022-09-01T10:55:20;6.82;;;5.43;;
46391;SDS011;32098;49.448;7.904;2022-09-01T11:01:11;4.82;;;4.35;;
46391;SDS011;32098;49.448;7.904;2022-09-01T11:03:51;5.75;;;4.80;;
46391;SDS011;32098;49.448;7.904;2022-09-01T11:09:18;5.28;;;4.88;;
46391;SDS011;32098;49.448;7.904;2022-09-01T11:12:02;6.07;;;5.53;;
46391;SDS011;32098;49.448;7.904;2022-09-01T11:14:51;6.47;;;4.78;;
46391;SDS011;32098;49.448;7.904;2022-09-01T11:19:55;5.00;;;4.50;;
46391;SDS011;32098;49.448;7.904;2022-09-01T11:33:32;5.07;;;4.55;;
46391;SDS011;32098;49.448;7.904;2022-09-01T11:36:04;5.18;;;4.20;;
46391;SDS011;32098;49.448;7.904;2022-09-01T11:39:03;4.10;;;3.80;;
46391;SDS011;32098;49.448;7.904;2022-09-01T11:41:34;5.35;;;4.30;;
46391;SDS011;32098;49.448;7.904;2022-09-01T11:44:27;4.95;;;4.38;;
46391;SDS011;32098;49.448;7.904;2022-09-01T11:47:03;4.82;;;4.00;;
46391;SDS011;32098;49.448;7.904;2022-09-01T11:49:44;4.60;;;4.10;;
46391;SDS011;32098;49.448;7.904;2022-09-01T11:52:16;4.05;;;3.65;;
46391;SDS011;32098;49.448;7.904;2022-09-01T11:54:44;4.00;;;3.70;;
46391;SDS011;32098;49.448;7.904;2022-09-01T11:57:16;3.90;;;3.50;;
46391;SDS011;32098;49.448;7.904;2022-09-01T11:59:47;4.00;;;3.60;;
46391;SDS011;32098;49.448;7.904;2022-09-01T12:02:24;3.97;;;3.42;;
46391;SDS011;32098;49.448;7.904;2022-09-01T12:04:53;3.95;;;3.63;;
46391;SDS011;32098;49.448;7.904;2022-09-01T12:10:28;6.47;;;3.83;;
46391;SDS011;32098;49.448;7.904;2022-09-01T12:13:09;3.90;;;3.60;;
46391;SDS011;32098;49.448;7.904;2022-09-01T12:15:39;3.78;;;3.40;;
46391;SDS011;32098;49.448;7.904;2022-09-01T12:18:30;5.10;;;3.78;;
46391;SDS011;32098;49.448;7.904;2022-09-01T12:21:01;3.58;;;3.28;;
46391;SDS011;32098;49.448;7.904;2022-09-01T12:23:30;3.95;;;3.33;;
46391;SDS011;32098;49.448;7.904;2022-09-01T12:26:00;3.65;;;3.35;;
46391;SDS011;32098;49.448;7.904;2022-09-01T12:28:29;4.72;;;3.65;;
46391;SDS011;32098;49.448;7.904;2022-09-01T12:30:59;4.82;;;3.75;;
46391;SDS011;32098;49.448;7.904;2022-09-01T12:33:32;3.60;;;3.30;;
46391;SDS011;32098;49.448;7.904;2022-09-01T12:38:38;3.88;;;3.47;;
46391;SDS011;32098;49.448;7.904;2022-09-01T12:41:21;3.78;;;3.47;;
46391;SDS011;32098;49.448;7.904;2022-09-01T12:44:24;3.50;;;3.22;;
46391;SDS011;32098;49.448;7.904;2022-09-01T12:46:58;3.97;;;3.05;;
46391;SDS011;32098;49.448;7.904;2022-09-01T12:49:39;3.10;;;2.90;;
46391;SDS011;32098;49.448;7.904;2022-09-01T12:54:45;4.80;;;3.40;;
46391;SDS011;32098;49.448;7.904;2022-09-01T13:02:37;3.53;;;3.20;;
46391;SDS011;32098;49.448;7.904;2022-09-01T13:08:09;4.95;;;3.33;;
46391;SDS011;32098;49.448;7.904;2022-09-01T13:10:52;4.05;;;3.30;;
46391;SDS011;32098;49.448;7.904;2022-09-01T13:13:30;3.30;;;3.00;;
46391;SDS011;32098;49.448;7.904;2022-09-01T13:15:57;5.20;;;3.25;;
46391;SDS011;32098;49.448;7.904;2022-09-01T13:18:28;3.65;;;3.15;;
46391;SDS011;32098;49.448;7.904;2022-09-01T13:20:55;3.60;;;3.25;;
46391;SDS011;32098;49.448;7.904;2022-09-01T13:23:23;3.28;;;2.97;;
46391;SDS011;32098;49.448;7.904;2022-09-01T13:25:49;3.60;;;3.33;;
46391;SDS011;32098;49.448;7.904;2022-09-01T13:28:16;3.38;;;3.17;;
46391;SDS011;32098;49.448;7.904;2022-09-01T13:30:45;3.10;;;2.90;;
46391;SDS011;32098;49.448;7.904;2022-09-01T13:33:38;3.47;;;3.17;;
46391;SDS011;32098;49.448;7.904;2022-09-01T13:36:25;2.95;;;2.75;;
46391;SDS011;32098;49.448;7.904;2022-09-01T13:39:11;3.13;;;2.92;;
46391;SDS011;32098;49.448;7.904;2022-09-01T13:41:38;3.03;;;2.80;;
46391;SDS011;32098;49.448;7.904;2022-09-01T13:44:04;3.40;;;3.10;;
46391;SDS011;32098;49.448;7.904;2022-09-01T13:46:31;3.17;;;2.75;;
46391;SDS011;32098;49.448;7.904;2022-09-01T13:48:57;3.30;;;3.10;;
46391;SDS011;32098;49.448;7.904;2022-09-01T13:51:28;3.53;;;2.92;;
46391;SDS011;32098;49.448;7.904;2022-09-01T13:53:55;4.25;;;3.25;;
46391;SDS011;32098;49.448;7.904;2022-09-01T13:56:21;2.83;;;2.63;;
46391;SDS011;32098;49.448;7.904;2022-09-01T13:58:48;3.78;;;3.33;;
46391;SDS011;32098;49.448;7.904;2022-09-01T14:01:14;3.00;;;2.80;;
46391;SDS011;32098;49.448;7.904;2022-09-01T14:03:41;3.13;;;2.83;;
46391;SDS011;32098;49.448;7.904;2022-09-01T14:06:09;3.30;;;3.00;;
46391;SDS011;32098;49.448;7.904;2022-09-01T14:08:35;3.03;;;2.72;;
46391;SDS011;32098;49.448;7.904;2022-09-01T14:11:02;3.00;;;2.80;;
46391;SDS011;32098;49.448;7.904;2022-09-01T14:13:29;2.85;;;2.60;;
46391;SDS011;32098;49.448;7.904;2022-09-01T14:15:56;3.38;;;2.80;;
46391;SDS011;32098;49.448;7.904;2022-09-01T14:18:24;3.83;;;2.85;;
46391;SDS011;32098;49.448;7.904;2022-09-01T14:20:57;3.00;;;2.80;;
46391;SDS011;32098;49.448;7.904;2022-09-01T14:23:26;3.45;;;2.70;;
46391;SDS011;32098;49.448;7.904;2022-09-01T14:25:53;3.28;;;2.97;;
46391;SDS011;32098;49.448;7.904;2022-09-01T14:28:20;3.15;;;2.80;;
46391;SDS011;32098;49.448;7.904;2022-09-01T14:30:48;3.13;;;2.92;;
46391;SDS011;32098;49.448;7.904;2022-09-01T14:33:15;4.47;;;2.70;;
46391;SDS011;32098;49.448;7.904;2022-09-01T14:35:45;3.30;;;3.00;;
46391;SDS011;32098;49.448;7.904;2022-09-01T14:38:13;2.95;;;2.75;;
46391;SDS011;32098;49.448;7.904;2022-09-01T14:40:40;2.90;;;2.60;;
46391;SDS011;32098;49.448;7.904;2022-09-01T14:43:08;4.85;;;3.00;;
46391;SDS011;32098;49.448;7.904;2022-09-01T14:45:36;3.40;;;3.10;;
46391;SDS011;32098;49.448;7.904;2022-09-01T14:48:03;4.35;;;3.22;;
46391;SDS011;32098;49.448;7.904;2022-09-01T14:50:30;3.03;;;2.72;;
46391;SDS011;32098;49.448;7.904;2022-09-01T14:52:58;3.30;;;3.00;;
46391;SDS011;32098;49.448;7.904;2022-09-01T14:55:27;3.22;;;2.85;;
46391;SDS011;32098;49.448;7.904;2022-09-01T14:57:55;3.78;;;3.45;;
46391;SDS011;32098;49.448;7.904;2022-09-01T15:00:23;3.40;;;3.10;;
46391;SDS011;32098;49.448;7.904;2022-09-01T15:02:54;3.45;;;3.15;;
46391;SDS011;32098;49.448;7.904;2022-09-01T15:05:21;3.05;;;2.80;;
46391;SDS011;32098;49.448;7.904;2022-09-01T15:07:48;3.45;;;3.15;;
46391;SDS011;32098;49.448;7.904;2022-09-01T15:10:16;2.65;;;2.45;;
46391;SDS011;32098;49.448;7.904;2022-09-01T15:12:55;3.15;;;2.90;;
46391;SDS011;32098;49.448;7.904;2022-09-01T15:15:23;4.07;;;2.80;;
46391;SDS011;32098;49.448;7.904;2022-09-01T15:17:50;3.72;;;2.80;;
46391;SDS011;32098;49.448;7.904;2022-09-01T15:20:17;2.90;;;2.70;;
46391;SDS011;32098;49.448;7.904;2022-09-01T15:23:02;3.13;;;2.70;;
46391;SDS011;32098;49.448;7.904;2022-09-01T15:25:29;3.08;;;2.80;;
46391;SDS011;32098;49.448;7.904;2022-09-01T15:27:56;3.33;;;3.00;;
46391;SDS011;32098;49.448;7.904;2022-09-01T15:30:23;2.85;;;2.65;;
46391;SDS011;32098;49.448;7.904;2022-09-01T15:32:50;3.70;;;3.40;;
46391;SDS011;32098;49.448;7.904;2022-09-01T15:35:18;3.63;;;3.33;;
46391;SDS011;32098;49.448;7.904;2022-09-01T15:37:46;3.40;;;2.85;;
46391;SDS011;32098;49.448;7.904;2022-09-01T15:40:15;4.82;;;3.40;;
46391;SDS011;32098;49.448;7.904;2022-09-01T15:42:42;5.43;;;3.38;;
46391;SDS011;32098;49.448;7.904;2022-09-01T15:45:11;3.88;;;3.42;;
46391;SDS011;32098;49.448;7.904;2022-09-01T15:47:40;4.00;;;3.60;;
46391;SDS011;32098;49.448;7.904;2022-09-01T15:50:12;4.10;;;3.70;;
46391;SDS011;32098;49.448;7.904;2022-09-01T15:55:17;4.38;;;3.80;;
46391;SDS011;32098;49.448;7.904;2022-09-01T15:57:52;4.13;;;3.60;;
46391;SDS011;32098;49.448;7.904;2022-09-01T16:00:21;3.70;;;3.40;;
46391;SDS011;32098;49.448;7.904;2022-09-01T16:02:51;4.40;;;3.75;;
46391;SDS011;32098;49.448;7.904;2022-09-01T16:05:19;4.40;;;4.00;;
46391;SDS011;32098;49.448;7.904;2022-09-01T16:07:46;4.10;;;3.75;;
46391;SDS011;32098;49.448;7.904;2022-09-01T16:10:12;4.03;;;3.63;;
46391;SDS011;32098;49.448;7.904;2022-09-01T16:12:40;4.03;;;3.60;;
46391;SDS011;32098;49.448;7.904;2022-09-01T16:15:10;3.70;;;3.30;;
46391;SDS011;32098;49.448;7.904;2022-09-01T16:23:44;4.80;;;3.58;;
46391;SDS011;32098;49.448;7.904;2022-09-01T16:26:14;4.00;;;3.60;;
46391;SDS011;32098;49.448;7.904;2022-09-01T16:28:46;4.70;;;3.60;;
46391;SDS011;32098;49.448;7.904;2022-09-01T16:31:22;7.05;;;3.65;;
46391;SDS011;32098;49.448;7.904;2022-09-01T16:33:52;3.97;;;3.65;;
46391;SDS011;32098;49.448;7.904;2022-09-01T16:36:35;3.55;;;3.25;;
46391;SDS011;32098;49.448;7.904;2022-09-01T16:39:08;4.03;;;3.72;;